Aérodrome :
LOGIN :

S'inscrire | Disclaimer

   EN    FR    IT 

 










Légende :    VFR   VFR Marginal   IFR   IFR Intensif   IFR Très Intensif
Visi : 
Plafond : 
>= 8 km
>= 3000ft
5 à 8 km
1000 à 3000 ft
1500m à 5 km
500 à 1000 ft
800 à 1500m
200 à 500 ft
< 800m
< 200 ft
Symboles :   Orages  Brouillard  Fortes neiges  Fortes précipitations  Vent > 20 kt
SIGMETs :   Divers  Orages  Givrage  Turbulence  Onde Orograph.  Cendres Volcan.






- Altitude de l'aérodrome : 0 ft


ETEB - Ansbach Army Heliport

DERNIER METAR :
  • 021156Z AUTO 33005KT 9999 SCT026 BKN033 21/17 A2993 RMK AO2 SLP132 60002 70026 T02050167 10212 20171 $

METARs EXPIRÉS :
  • 021056Z AUTO 25003KT 9999 FEW050 FEW200 19/18 A2995 RMK AO2 SLP141 T01930181 $
  • 020956Z AUTO M 9999 CLR 18/18 A2995 RMK AO2 RAE05DZB05E12RAB12E49 SLP143 P0000 T01760176 $

TAF AMD TAF ETEB
Valide du 01 à 16h jusqu'au 02 à 15h UTC


011600Z 0116/0215 24012KT 9999 SCT050 QNH2986INS
BECMG 0118/0119 24010G15KT 8000 -SHRA BKN025 QNH2980INS
BECMG 0121/0122 26006KT 9999 NSW BKN025 QNH2981INS
BECMG 0206/0207 28010KT 6000 -SHRA BKN015 QNH2985INS
TEMPO 0209/0212 30015G25KT 4000 -TSRA BKN010CB
BECMG 0212/0213 27012KT 9999 NSW BKN030 QNH2986INS TX28/0116Z TN16/0203Z LAST NO AMDS AFT 0116 NEXT 0609



MET'MAP, la Météo Aéronautique d'un coup d'oeil ! - Copyright ORBIFLY Décembre 2007 - Disclaimer

ORBIFLY MET'MAP TEAM :

Programmation & Développement : Alexandra Zaïnal
Sur une idée originale de : Baudouin d'Aumeries
Assistance à la programmation : Marc-Olivier Méhu
Soutien technique & logistique : Manuel Goepfert

Contact : metmap@orbifly.com




SOURCES & CREDITS :

   NOAA